| time (UTC) | temp C | wind direction | speed KPH | gust KPH | rain 1hr cm | rain 24hr cm | rain mn cm | humidity % | barometer mb |
| 20260510223031 | 18 | 340 | 3.2 | 9.7 | 0.00 | 0.33 | 0.00 | 37 | 1017.0 |
| 20260510220043 | 20 | 348 | 8.0 | 17.7 | 0.00 | 0.33 | 0.00 | 33 | 1017.0 |
| 20260510213035 | 20 | 342 | 11.3 | 16.1 | 0.00 | 0.33 | 0.00 | 32 | 1016.8 |
| 20260510210029 | 20 | 344 | 9.7 | 16.1 | 0.00 | 0.33 | 0.00 | 30 | 1016.9 |
| 20260510203041 | 20 | 10 | 9.7 | 16.1 | 0.00 | 0.33 | 0.00 | 32 | 1017.1 |
| 20260510200035 | 20 | 341 | 9.7 | 17.7 | 0.00 | 0.33 | 0.00 | 35 | 1017.0 |
| 20260510193029 | 20 | 328 | 1.6 | 8.0 | 0.00 | 0.33 | 0.00 | 34 | 1017.0 |
| 20260510190039 | 20 | 340 | 4.8 | 19.3 | 0.00 | 0.33 | 0.00 | 40 | 1016.9 |
| 20260510183032 | 18 | 344 | 9.7 | 19.3 | 0.00 | 0.33 | 0.00 | 39 | 1016.7 |
| 20260510180042 | 17 | 338 | 6.4 | 11.3 | 0.00 | 0.33 | 0.00 | 40 | 1017.0 |
| 20260510173035 | 16 | 332 | 4.8 | 11.3 | 0.00 | 0.33 | 0.00 | 52 | 1017.1 |
| 20260510170029 | 16 | 342 | 1.6 | 6.4 | 0.00 | 0.33 | 0.00 | 55 | 1017.5 |
| 20260510163041 | 15 | 342 | 1.6 | 3.2 | 0.00 | 0.33 | 0.00 | 62 | 1017.4 |
| 20260510160034 | 15 | 342 | 4.8 | 8.0 | 0.00 | 0.33 | 0.00 | 59 | 1017.2 |
| 20260510153046 | 14 | 342 | 1.6 | 6.4 | 0.00 | 0.33 | 0.00 | 58 | 1017.5 |
| 20260510150039 | 15 | 342 | 4.8 | 9.7 | 0.00 | 0.33 | 0.00 | 56 | 1017.2 |
| 20260510143046 | 14 | 338 | 4.8 | 8.0 | 0.00 | 0.33 | 0.00 | 58 | 1016.8 |
| 20260510140040 | 13 | 338 | 0.0 | 6.4 | 0.00 | 0.33 | 0.00 | 66 | 1016.5 |
| 20260510133033 | 12 | 338 | 0.0 | 6.4 | 0.00 | 0.33 | 0.00 | 77 | 1015.7 |
| 20260510130047 | 10 | 338 | 1.6 | 6.4 | 0.00 | 0.33 | 0.00 | 93 | 1015.6 |
| 20260510123041 | 10 | 338 | 0.0 | 0.0 | 0.00 | 0.33 | 0.00 | 100 | 1015.4 |
| 20260510120032 | 10 | 338 | 0.0 | 0.0 | 0.00 | 0.33 | 0.00 | 100 | 1014.8 |
| 20260510113045 | 10 | 338 | 0.0 | 0.0 | 0.00 | 0.33 | 0.00 | 100 | 1014.3 |
| 20260510110040 | 10 | 338 | 0.0 | 0.0 | 0.00 | 0.33 | 0.00 | 99 | 1013.8 |
| 20260510103033 | 11 | 338 | 0.0 | 0.0 | 0.00 | 0.33 | 0.00 | 99 | 1013.3 |
| 20260510100041 | 11 | 338 | 0.0 | 4.8 | 0.00 | 0.33 | 0.00 | 100 | 1012.5 |
| 20260510093033 | 12 | 338 | 0.0 | 3.2 | 0.00 | 0.33 | 0.00 | 100 | 1012.4 |
| 20260510090045 | 12 | 338 | 0.0 | 0.0 | 0.00 | 0.33 | 0.00 | 100 | 1011.9 |
| 20260510083038 | 13 | 338 | 0.0 | 0.0 | 0.00 | 0.33 | 0.00 | 100 | 1011.7 |
| 20260510080029 | 13 | 338 | 0.0 | 0.0 | 0.00 | 0.33 | 0.00 | 100 | 1011.1 |
| 20260510073043 | 14 | 338 | 0.0 | 0.0 | 0.00 | 0.33 | 0.00 | 100 | 1010.7 |
| 20260510070036 | 14 | 338 | 0.0 | 0.0 | 0.00 | 0.33 | 0.00 | 100 | 1010.7 |
| 20260510063030 | 14 | 338 | 0.0 | 0.0 | 0.00 | 0.33 | 0.00 | 100 | 1010.7 |
| 20260510060041 | 15 | 338 | 0.0 | 0.0 | 0.00 | 0.33 | 0.00 | 100 | 1010.5 |
| 20260510053034 | 15 | 338 | 0.0 | 0.0 | 0.00 | 0.33 | 0.00 | 99 | 1010.3 |
| 20260510050042 | 15 | 338 | 0.0 | 0.0 | 0.03 | 0.33 | 0.33 | 99 | 1009.6 |
| 20260510043034 | 15 | 338 | 1.6 | 3.2 | 0.05 | 0.33 | 0.33 | 98 | 1009.0 |
| 20260510040027 | 16 | 338 | 0.0 | 0.0 | 0.25 | 0.30 | 0.30 | 97 | 1009.4 |
| 20260510033041 | 16 | 338 | 0.0 | 0.0 | 0.25 | 0.28 | 0.28 | 95 | 1008.5 |
| 20260510030034 | 16 | 340 | 1.6 | 6.4 | 0.05 | 0.13 | 0.05 | 91 | 1008.6 |
| 20260510023028 | 17 | 336 | 14.5 | 24.1 | 0.03 | 0.10 | 0.03 | 87 | 1008.4 |
| 20260510020041 | 18 | 351 | 9.7 | 35.4 | 0.00 | 0.64 | 0.00 | 71 | 1007.1 |
| 20260510013053 | 19 | 323 | 0.0 | 0.0 | 0.00 | 0.64 | 0.00 | 66 | 1005.1 |
| 20260510010041 | 21 | 323 | 0.0 | 0.0 | 0.00 | 1.17 | 0.00 | 63 | 1004.9 |
| 20260510003033 | 22 | 323 | 0.0 | 0.0 | 0.00 | 1.17 | 0.00 | 52 | 1004.9 |
| 20260510000026 | 26 | 323 | 0.0 | 0.0 | 0.00 | 1.19 | 0.00 | 46 | 1004.8 |
| 20260509233041 | 28 | 323 | 0.0 | 4.8 | 0.00 | 1.19 | 0.00 | 30 | 1004.9 |
| 20260509230035 | 28 | 292 | 0.0 | 14.5 | 0.00 | 1.35 | 0.00 | 28 | 1004.8 |